Time;durP1;ratioP1;P1;durP2;ratioP2;P2;SDS_P1;SDS_P2;PMS_P1;PMS_P2;Temp;Humidity;BMP_temperature;BMP_pressure;BME280_temperature;BME280_humidity;BME280_pressure;Samples;Min_cycle;Max_cycle;Signal;HPM_P1;HPM_P2
2023/12/31 00:03:00;;;;;;;1.02;0.40;;;;;;;19.15;38.70;100284.31;16112002;19;129802;-68
2023/12/31 00:08:22;;;;;;;4.35;0.70;;;;;;;19.15;38.59;100264.91;16113850;19;131134;-67
2023/12/31 00:13:44;;;;;;;2.70;0.70;;;;;;;19.12;39.02;100251.56;16109092;19;130854;-67
2023/12/31 00:19:06;;;;;;;3.50;0.43;;;;;;;19.07;38.98;100244.06;16110079;19;130609;-67
2023/12/31 00:24:28;;;;;;;2.45;0.40;;;;;;;19.01;38.85;100240.41;16111913;19;130347;-67
2023/12/31 00:29:50;;;;;;;2.53;0.47;;;;;;;18.95;38.74;100226.78;16106091;19;129509;-67
2023/12/31 00:35:13;;;;;;;1.58;0.43;;;;;;;18.89;39.06;100215.63;16108320;19;131018;-67
2023/12/31 00:40:35;;;;;;;3.13;0.40;;;;;;;18.86;38.98;100185.69;16109772;19;129936;-67
2023/12/31 00:45:57;;;;;;;1.95;0.40;;;;;;;18.83;38.80;100172.38;16105944;19;129487;-67
2023/12/31 00:51:19;;;;;;;2.88;0.70;;;;;;;18.80;38.92;100172.06;16109847;19;130937;-67
2023/12/31 00:56:41;;;;;;;0.50;0.30;;;;;;;18.75;38.83;100164.56;16107649;19;133364;-68
2023/12/31 01:02:03;;;;;;;0.85;0.32;;;;;;;18.72;39.10;100149.28;16108719;19;131658;-67
2023/12/31 01:07:25;;;;;;;0.88;0.30;;;;;;;18.70;38.94;100134.03;16106171;19;130450;-68
2023/12/31 01:12:47;;;;;;;3.28;0.38;;;;;;;18.65;39.18;100129.28;16109630;19;130363;-68
2023/12/31 01:18:10;;;;;;;0.80;0.30;;;;;;;18.62;39.20;100118.75;16105487;19;130850;-67
2023/12/31 01:23:32;;;;;;;0.73;0.40;;;;;;;18.61;39.19;100100.44;16106210;19;131391;-67
2023/12/31 01:28:53;;;;;;;2.17;0.30;;;;;;;18.58;38.99;100092.69;16107415;19;130967;-67
2023/12/31 01:34:16;;;;;;;1.48;0.20;;;;;;;18.56;39.22;100072.72;16105243;19;130990;-67
2023/12/31 01:39:38;;;;;;;0.98;0.20;;;;;;;18.53;38.80;100068.53;16108402;19;129545;-68
2023/12/31 01:45:00;;;;;;;0.40;0.25;;;;;;;18.52;39.06;100068.81;16109142;19;129333;-67
2023/12/31 01:50:23;;;;;;;0.93;0.30;;;;;;;18.51;39.17;100061.59;16106398;19;129643;-67
2023/12/31 01:55:47;;;;;;;0.25;0.15;;;;;;;18.45;39.22;100039.44;16114753;19;130856;-68
2023/12/31 02:01:09;;;;;;;0.85;0.35;;;;;;;18.43;38.74;100029.69;16122367;19;130979;-67
2023/12/31 02:06:32;;;;;;;0.63;0.28;;;;;;;18.41;39.17;100027.19;16115832;19;130302;-68
2023/12/31 02:11:55;;;;;;;0.90;0.30;;;;;;;18.41;39.18;100006.97;16120266;19;130482;-68
2023/12/31 02:17:17;;;;;;;0.65;0.20;;;;;;;18.37;39.14;100003.88;16122301;19;129971;-68
2023/12/31 02:22:39;;;;;;;0.40;0.22;;;;;;;18.34;39.19;100004.41;16122033;19;130411;-68
2023/12/31 02:28:01;;;;;;;0.50;0.30;;;;;;;18.30;38.97;99976.41;16121244;19;133766;-68
2023/12/31 02:33:23;;;;;;;0.32;0.30;;;;;;;18.29;39.10;99968.38;16120301;19;129677;-68
2023/12/31 02:38:45;;;;;;;1.75;0.32;;;;;;;18.26;39.12;99944.00;16116535;19;129854;-68
2023/12/31 02:44:07;;;;;;;2.05;0.30;;;;;;;18.24;39.11;99933.22;16123688;19;129530;-68
2023/12/31 02:49:28;;;;;;;0.20;0.20;;;;;;;18.22;38.84;99924.34;16117064;19;130528;-68
2023/12/31 02:54:51;;;;;;;0.43;0.13;;;;;;;18.21;39.00;99905.22;16120377;19;129995;-68
2023/12/31 03:00:13;;;;;;;0.68;0.20;;;;;;;18.20;39.08;99886.94;16122168;19;129011;-69
2023/12/31 03:05:35;;;;;;;0.65;0.30;;;;;;;18.18;38.92;99875.31;16111860;19;130742;-69
2023/12/31 03:10:57;;;;;;;0.40;0.28;;;;;;;18.14;38.82;99862.00;16122726;19;129494;-69
2023/12/31 03:16:19;;;;;;;0.57;0.20;;;;;;;18.12;39.29;99858.66;16115615;19;130529;-70
2023/12/31 03:21:42;;;;;;;0.50;0.15;;;;;;;18.11;39.07;99847.88;16119316;19;133631;-70
2023/12/31 03:27:04;;;;;;;0.40;0.30;;;;;;;18.09;38.92;99814.91;16117075;19;131471;-68
2023/12/31 03:32:26;;;;;;;0.47;0.30;;;;;;;18.07;38.83;99805.22;16120790;19;130927;-68
2023/12/31 03:37:49;;;;;;;0.40;0.22;;;;;;;18.06;38.84;99789.72;16112503;19;129435;-68
2023/12/31 03:43:11;;;;;;;0.55;0.20;;;;;;;18.05;39.23;99780.59;16109694;19;131247;-68
2023/12/31 03:48:33;;;;;;;0.70;0.20;;;;;;;18.05;38.81;99771.44;16113048;19;129911;-70
2023/12/31 03:53:55;;;;;;;0.50;0.20;;;;;;;18.01;38.75;99746.25;16112649;19;131297;-68
2023/12/31 03:59:17;;;;;;;0.82;0.30;;;;;;;18.00;38.91;99739.06;16114784;19;131427;-68
2023/12/31 04:04:38;;;;;;;0.50;0.25;;;;;;;17.99;38.87;99720.78;16115053;19;130894;-68
2023/12/31 04:10:01;;;;;;;0.45;0.20;;;;;;;17.98;39.07;99705.28;16112978;19;129457;-68
2023/12/31 04:15:23;;;;;;;0.25;0.22;;;;;;;17.95;38.64;99689.25;16110633;19;130826;-69
2023/12/31 04:20:45;;;;;;;0.50;0.22;;;;;;;17.95;38.59;99680.94;16111914;19;131247;-68
2023/12/31 04:26:07;;;;;;;0.70;0.25;;;;;;;17.94;39.08;99668.22;16111730;19;129807;-68
2023/12/31 04:31:30;;;;;;;0.38;0.20;;;;;;;17.92;38.81;99667.63;16110882;19;131565;-68
2023/12/31 04:36:52;;;;;;;0.35;0.20;;;;;;;17.90;38.82;99654.09;16111072;19;130082;-68
2023/12/31 04:42:14;;;;;;;0.40;0.20;;;;;;;17.88;38.91;99639.69;16107920;19;129465;-68
2023/12/31 04:47:36;;;;;;;0.50;0.30;;;;;;;17.87;38.62;99623.34;16109504;19;132182;-68
2023/12/31 04:52:58;;;;;;;1.15;0.40;;;;;;;17.85;38.89;99599.53;16108225;19;130930;-68
2023/12/31 04:58:20;;;;;;;0.35;0.10;;;;;;;17.84;38.76;99617.28;16110987;19;131453;-68
2023/12/31 05:03:46;;;;;;;0.30;0.30;;;;;;;17.84;38.75;99602.59;16104376;19;131753;-68
2023/12/31 05:09:08;;;;;;;0.40;0.38;;;;;;;17.82;38.54;99591.81;16111098;19;131164;-68
2023/12/31 05:14:30;;;;;;;0.45;0.20;;;;;;;17.81;38.94;99573.56;16102418;19;129999;-67
2023/12/31 05:19:52;;;;;;;0.50;0.20;;;;;;;17.81;38.59;99564.41;16108632;19;130776;-66
2023/12/31 05:25:14;;;;;;;0.40;0.40;;;;;;;17.78;38.94;99576.84;16111421;19;129692;-66
2023/12/31 05:30:36;;;;;;;0.68;0.35;;;;;;;17.78;38.67;99563.03;16105436;19;130849;-67
2023/12/31 05:35:58;;;;;;;0.70;0.30;;;;;;;17.78;38.95;99565.78;16108174;19;129580;-67
2023/12/31 05:41:20;;;;;;;0.57;0.38;;;;;;;17.76;39.07;99540.34;16108095;19;129816;-67
2023/12/31 05:46:42;;;;;;;1.30;0.40;;;;;;;17.75;38.57;99533.13;16108803;19;131106;-67
2023/12/31 05:52:05;;;;;;;0.52;0.38;;;;;;;17.75;38.82;99522.06;16100983;19;131806;-66
2023/12/31 05:57:27;;;;;;;0.20;0.20;;;;;;;17.74;38.90;99517.66;16105030;19;129786;-67
2023/12/31 06:02:49;;;;;;;0.40;0.38;;;;;;;17.74;39.00;99503.81;16101958;19;130031;-67
2023/12/31 06:08:11;;;;;;;0.35;0.35;;;;;;;17.77;38.85;99492.22;16101259;19;131468;-66
2023/12/31 06:13:33;;;;;;;0.75;0.30;;;;;;;17.88;38.64;99476.47;16102609;19;130544;-67
2023/12/31 06:18:55;;;;;;;0.63;0.40;;;;;;;18.02;38.83;99454.59;16109442;19;131038;-67
2023/12/31 06:24:17;;;;;;;0.30;0.30;;;;;;;18.19;38.50;99453.47;16103631;19;130769;-67
2023/12/31 06:29:39;;;;;;;0.85;0.55;;;;;;;18.37;38.25;99461.16;16107588;19;130167;-67
2023/12/31 06:35:03;;;;;;;0.40;0.30;;;;;;;18.52;37.94;99442.88;16101573;19;130073;-67
2023/12/31 06:40:25;;;;;;;0.30;0.30;;;;;;;18.66;37.90;99441.19;16103134;19;129686;-67
2023/12/31 06:45:47;;;;;;;0.52;0.30;;;;;;;18.76;37.92;99418.16;16116572;19;132070;-66
2023/12/31 06:51:09;;;;;;;0.30;0.28;;;;;;;18.83;37.88;99412.31;16120432;19;130190;-66
2023/12/31 06:56:31;;;;;;;0.43;0.38;;;;;;;18.87;37.36;99418.91;16116988;19;131103;-66
2023/12/31 07:01:53;;;;;;;0.65;0.30;;;;;;;18.89;37.26;99395.34;16112949;19;129415;-66
2023/12/31 07:07:15;;;;;;;1.20;0.25;;;;;;;;;;16110018;19;132532;-67
2023/12/31 07:12:37;;;;;;;0.40;0.35;;;;;;;18.93;37.63;99379.00;16113182;19;129717;-67
2023/12/31 07:17:59;;;;;;;0.77;0.30;;;;;;;18.92;37.42;99385.66;16120329;19;129588;-67
2023/12/31 07:23:22;;;;;;;0.93;0.40;;;;;;;18.89;37.33;99383.44;16120109;19;131117;-67
2023/12/31 07:28:43;;;;;;;0.50;0.20;;;;;;;18.87;37.70;99367.13;16124390;19;131202;-68
2023/12/31 07:34:06;;;;;;;0.40;0.30;;;;;;;18.84;37.36;99361.28;16126781;19;130805;-66
2023/12/31 07:39:28;;;;;;;0.60;0.20;;;;;;;18.81;37.68;99375.75;16127998;19;129504;-65
2023/12/31 07:44:50;;;;;;;0.20;0.20;;;;;;;18.77;37.47;99364.38;16122825;19;131266;-65
2023/12/31 07:50:12;;;;;;;0.47;0.30;;;;;;;18.73;37.51;99366.91;16134731;19;129233;-66
2023/12/31 07:55:34;;;;;;;4.32;0.40;;;;;;;18.75;37.86;99367.44;16128933;19;129648;-66
2023/12/31 08:00:58;;;;;;;0.70;0.43;;;;;;;18.82;37.78;99377.41;16159255;19;133950;-68
2023/12/31 08:06:20;;;;;;;2.55;0.40;;;;;;;19.02;37.38;99376.44;16155114;19;129737;-68
2023/12/31 08:11:43;;;;;;;0.57;0.40;;;;;;;19.29;36.88;99373.25;16143752;19;129959;-62
2023/12/31 08:17:05;;;;;;;1.17;0.47;;;;;;;19.55;36.95;99374.97;16138985;19;130377;-65
2023/12/31 08:22:27;;;;;;;1.02;0.40;;;;;;;19.74;36.28;99380.63;16144272;19;129369;-66
2023/12/31 08:27:49;;;;;;;2.53;0.50;;;;;;;19.81;36.33;99381.13;16136280;19;130054;-64
2023/12/31 08:33:11;;;;;;;0.82;0.50;;;;;;;19.84;36.59;99391.63;16121338;19;129064;-64
2023/12/31 08:38:33;;;;;;;4.22;0.35;;;;;;;19.84;36.53;99397.19;16117138;19;129602;-64
2023/12/31 08:43:55;;;;;;;1.15;0.30;;;;;;;19.81;36.86;99395.00;16112681;19;129797;-64
2023/12/31 08:49:18;;;;;;;4.55;0.52;;;;;;;19.79;36.87;99416.66;16119700;19;130121;-65
2023/12/31 08:54:41;;;;;;;1.48;0.57;;;;;;;19.76;36.81;99417.25;16127416;19;131122;-64
2023/12/31 09:00:04;;;;;;;1.10;0.30;;;;;;;19.74;36.54;99419.47;16126646;19;130963;-65
2023/12/31 09:05:26;;;;;;;1.17;0.30;;;;;;;19.72;36.40;99410.59;16115175;19;129936;-66
2023/12/31 09:10:48;;;;;;;2.05;0.55;;;;;;;19.75;36.82;99426.69;16112230;19;129919;-64
2023/12/31 09:16:10;;;;;;;2.08;0.30;;;;;;;19.85;36.52;99434.91;16110851;19;130031;-65
2023/12/31 09:21:32;;;;;;;0.95;0.60;;;;;;;20.01;36.28;99427.31;16110179;19;130153;-66
2023/12/31 09:26:53;;;;;;;9.38;0.65;;;;;;;20.23;36.59;99432.38;16120075;19;129535;-67
2023/12/31 09:32:15;;;;;;;5.97;1.02;;;;;;;20.45;36.24;99433.78;16113063;19;131101;-65
2023/12/31 09:37:37;;;;;;;3.40;0.60;;;;;;;20.64;35.64;99453.31;16109150;19;130796;-67
2023/12/31 09:43:02;;;;;;;5.70;0.55;;;;;;;20.83;35.59;99456.16;16122446;19;129609;-67
2023/12/31 09:48:26;;;;;;;3.03;0.55;;;;;;;20.98;35.39;99463.50;16129739;19;132006;-67
2023/12/31 09:53:52;;;;;;;3.50;0.40;;;;;;;21.16;35.33;99475.78;16128470;19;129747;-66
2023/12/31 09:59:15;;;;;;;5.38;0.60;;;;;;;21.33;35.22;99502.22;16123130;19;131436;-66
2023/12/31 10:04:38;;;;;;;7.75;1.23;;;;;;;21.46;35.10;99479.22;16155795;19;129607;-69
2023/12/31 10:10:02;;;;;;;12.57;1.10;;;;;;;21.56;34.89;99483.00;16135749;19;130328;-75
2023/12/31 10:15:24;;;;;;;4.55;0.77;;;;;;;21.59;34.58;99480.47;16135264;19;129769;-68
2023/12/31 10:20:46;;;;;;;5.35;0.80;;;;;;;21.57;34.86;99493.00;16147159;19;129546;-75
2023/12/31 10:26:08;;;;;;;5.28;0.60;;;;;;;21.45;34.98;99502.59;16132268;19;130519;-66
2023/12/31 10:31:31;;;;;;;4.20;0.90;;;;;;;21.33;35.04;99507.78;16139429;19;131373;-62
2023/12/31 10:37:07;;;;;;;10.82;0.68;;;;;;;21.28;35.42;99513.44;16136804;19;130718;-62
2023/12/31 10:42:30;;;;;;;10.02;0.75;;;;;;;21.23;35.33;99514.34;16143814;19;130069;-62
2023/12/31 10:47:56;;;;;;;5.80;0.65;;;;;;;21.06;35.14;99514.81;16139804;19;129647;-69
2023/12/31 10:53:21;;;;;;;5.97;1.00;;;;;;;20.93;35.08;99509.97;16131893;19;129849;-63
2023/12/31 10:58:45;;;;;;;;;;;;;;;20.78;36.04;99522.94;16127573;19;130842;-63
2023/12/31 11:04:13;;;;;;;8.00;1.08;;;;;;;20.70;35.83;99534.66;16122570;19;129870;-63
2023/12/31 11:09:35;;;;;;;5.03;0.85;;;;;;;20.63;36.30;99548.09;16120634;19;129982;-62
2023/12/31 11:15:04;;;;;;;2.83;0.75;;;;;;;20.65;36.56;99537.50;16130140;19;129543;-67
2023/12/31 11:20:26;;;;;;;7.15;1.00;;;;;;;20.49;36.05;99546.00;16141846;19;129464;-70
2023/12/31 11:25:48;;;;;;;5.43;0.80;;;;;;;20.51;36.53;99565.97;16128957;19;129862;-67
2023/12/31 11:31:10;;;;;;;10.23;0.68;;;;;;;20.56;38.13;99565.91;16122719;19;132207;-65
2023/12/31 11:36:32;;;;;;;5.15;0.70;;;;;;;20.66;37.14;99570.53;16115654;19;130086;-64
2023/12/31 11:42:00;;;;;;;4.97;1.00;;;;;;;20.63;36.74;99554.44;16112361;19;131079;-59
2023/12/31 11:47:26;;;;;;;6.57;0.60;;;;;;;20.63;37.50;99557.22;16113025;19;130305;-64
2023/12/31 11:52:48;;;;;;;8.32;0.90;;;;;;;20.67;36.38;99563.88;16120686;19;133809;-72
2023/12/31 11:58:11;;;;;;;9.73;0.88;;;;;;;20.63;36.56;99562.78;16116619;19;130337;-70
2023/12/31 12:03:33;;;;;;;6.55;0.88;;;;;;;20.62;36.22;99557.53;16118889;19;129495;-69
2023/12/31 12:08:55;;;;;;;6.35;0.95;;;;;;;20.58;35.95;99558.13;16118796;19;130039;-74
2023/12/31 12:14:17;;;;;;;5.43;1.02;;;;;;;20.56;35.92;99557.56;16115306;19;129442;-74
2023/12/31 12:19:39;;;;;;;3.65;0.77;;;;;;;20.56;36.01;99551.19;16117705;19;132298;-75
2023/12/31 12:25:01;;;;;;;4.45;0.60;;;;;;;20.53;35.82;99551.78;16114298;19;129693;-74
2023/12/31 12:30:27;;;;;;;4.30;0.80;;;;;;;20.50;35.61;99547.66;16119111;19;129603;-75
2023/12/31 12:35:50;;;;;;;2.55;0.60;;;;;;;20.44;35.95;99546.03;16122501;19;130013;-73
2023/12/31 12:41:19;;;;;;;3.53;0.80;;;;;;;20.42;35.88;99540.78;16119487;19;129701;-73
2023/12/31 12:46:42;;;;;;;10.80;0.93;;;;;;;20.41;35.47;99533.56;16117781;19;131587;-68
2023/12/31 12:52:04;;;;;;;11.38;0.95;;;;;;;20.45;35.32;99531.00;16113375;19;129990;-72
2023/12/31 12:57:27;;;;;;;4.05;0.93;;;;;;;20.53;35.05;99530.41;16107592;19;130364;-64
2023/12/31 13:02:49;;;;;;;3.78;0.75;;;;;;;20.57;34.58;99537.00;16117617;19;130117;-66
2023/12/31 13:08:11;;;;;;;7.53;1.10;;;;;;;20.67;34.83;99518.59;16116317;19;129351;-62
2023/12/31 13:13:33;;;;;;;5.25;1.13;;;;;;;20.75;34.54;99518.78;16112777;19;129664;-65
2023/12/31 13:18:55;;;;;;;9.50;1.40;;;;;;;20.84;34.71;99509.81;16108796;19;130584;-66
2023/12/31 13:24:17;;;;;;;6.78;1.00;;;;;;;20.88;34.34;99520.03;16102641;19;132286;-66
2023/12/31 13:29:39;;;;;;;11.13;1.38;;;;;;;20.94;34.38;99511.63;16101559;19;131083;-64
2023/12/31 13:35:02;;;;;;;6.07;1.38;;;;;;;20.95;33.74;99507.72;16107730;19;129976;-66
2023/12/31 13:40:24;;;;;;;5.93;1.50;;;;;;;20.97;33.63;99497.13;16107722;19;130935;-62
2023/12/31 13:45:46;;;;;;;9.32;1.45;;;;;;;20.99;33.93;99503.22;16107657;19;129917;-64
2023/12/31 13:51:09;;;;;;;20.33;2.28;;;;;;;21.03;34.00;99499.56;16111762;19;129409;-61
2023/12/31 13:56:31;;;;;;;19.02;2.17;;;;;;;21.08;33.76;99514.53;16121466;19;130095;-61
2023/12/31 14:01:53;;;;;;;14.57;1.63;;;;;;;21.10;33.29;99507.53;16118713;19;132418;-61
2023/12/31 14:07:15;;;;;;;8.27;1.95;;;;;;;21.11;32.99;99509.19;16125642;19;129819;-61
2023/12/31 14:12:38;;;;;;;13.45;2.50;;;;;;;21.06;31.80;99500.91;16120855;19;130845;-61
2023/12/31 14:18:04;;;;;;;17.42;2.53;;;;;;;20.97;31.41;99494.34;16124576;19;129902;-66
2023/12/31 14:23:27;;;;;;;14.75;2.33;;;;;;;20.89;31.45;99502.25;16119103;19;129735;-64
2023/12/31 14:28:49;;;;;;;17.05;2.72;;;;;;;20.92;31.93;99486.91;16121841;19;130891;-74
2023/12/31 14:34:13;;;;;;;10.35;2.55;;;;;;;20.95;31.88;99497.44;16120651;19;131262;-66
2023/12/31 14:39:35;;;;;;;14.05;2.67;;;;;;;21.10;31.45;99495.59;16113690;19;130626;-71
2023/12/31 14:44:57;;;;;;;9.10;2.25;;;;;;;21.14;31.66;99505.81;16112407;19;130862;-67
2023/12/31 14:50:19;;;;;;;10.73;1.98;;;;;;;21.15;31.24;99490.81;16117500;19;130233;-64
2023/12/31 14:55:41;;;;;;;12.02;2.13;;;;;;;21.19;31.43;99502.16;16115008;19;131018;-60
2023/12/31 15:01:03;;;;;;;8.73;2.40;;;;;;;21.21;30.92;99500.72;16118263;19;130241;-58
2023/12/31 15:06:27;;;;;;;11.82;2.17;;;;;;;21.22;31.43;99501.56;16114994;19;129528;-59
2023/12/31 15:11:49;;;;;;;8.02;1.90;;;;;;;21.23;31.28;99514.34;16116915;19;131085;-59
2023/12/31 15:17:12;;;;;;;21.75;2.90;;;;;;;21.32;31.61;99501.41;16118131;19;129579;-58
2023/12/31 15:22:34;;;;;;;19.45;2.78;;;;;;;21.52;31.60;99508.69;16116462;19;131317;-53
2023/12/31 15:27:56;;;;;;;15.05;2.85;;;;;;;21.63;31.63;99508.53;16110661;19;130536;-58
2023/12/31 15:33:18;;;;;;;13.73;2.60;;;;;;;21.70;31.47;99505.34;16116774;19;129865;-58
2023/12/31 15:38:40;;;;;;;10.35;2.45;;;;;;;21.75;31.57;99505.25;16116530;19;129392;-58
2023/12/31 15:44:02;;;;;;;11.80;2.10;;;;;;;21.79;31.93;99498.78;16114008;19;131016;-58
2023/12/31 15:49:25;;;;;;;11.32;2.28;;;;;;;21.87;32.04;99510.38;16110769;19;130297;-59
2023/12/31 15:54:47;;;;;;;10.88;2.15;;;;;;;21.96;31.92;99508.56;16113406;19;131039;-58
2023/12/31 16:00:11;;;;;;;7.57;1.98;;;;;;;22.06;31.56;99508.38;16114117;19;130024;-58
2023/12/31 16:05:33;;;;;;;11.50;1.83;;;;;;;22.12;31.50;99496.03;16110733;19;132970;-58
2023/12/31 16:10:56;;;;;;;6.95;2.05;;;;;;;22.19;31.86;99501.22;16111759;19;129879;-61
2023/12/31 16:16:18;;;;;;;13.68;2.65;;;;;;;22.23;31.92;99507.03;16114596;19;131622;-57
2023/12/31 16:21:41;;;;;;;25.20;2.70;;;;;;;22.28;32.49;99501.34;16106738;19;131309;-61
2023/12/31 16:27:03;;;;;;;18.98;2.53;;;;;;;22.33;32.50;99501.25;16111991;19;129599;-61
2023/12/31 16:32:25;;;;;;;13.82;2.78;;;;;;;22.39;32.39;99513.16;16107619;19;129825;-60
2023/12/31 16:37:47;;;;;;;13.82;2.35;;;;;;;22.41;31.85;99522.03;16112118;19;129800;-61
2023/12/31 16:43:10;;;;;;;12.77;2.65;;;;;;;22.39;31.77;99521.50;16111711;19;129608;-61
2023/12/31 16:48:31;;;;;;;22.45;2.75;;;;;;;22.37;31.54;99527.38;16107051;19;129696;-62
2023/12/31 16:53:58;;;;;;;13.85;2.50;;;;;;;22.38;30.84;99519.84;16117405;19;132993;-67
2023/12/31 16:59:20;;;;;;;15.40;2.92;;;;;;;22.32;30.89;99527.47;16113587;19;129500;-63
2023/12/31 17:04:42;;;;;;;10.23;2.50;;;;;;;22.27;30.43;99519.22;16116026;19;129776;-66
2023/12/31 17:10:11;;;;;;;15.82;2.35;;;;;;;22.22;30.46;99544.38;16115559;19;130080;-67
2023/12/31 17:15:33;;;;;;;9.85;1.98;;;;;;;22.13;30.03;99545.03;16116663;19;132871;-66
2023/12/31 17:20:57;;;;;;;12.93;2.67;;;;;;;22.04;29.97;99544.06;16113953;19;130635;-63
2023/12/31 17:26:19;;;;;;;10.60;2.00;;;;;;;21.97;29.73;99546.41;16111040;19;130313;-63
2023/12/31 17:31:41;;;;;;;11.63;2.17;;;;;;;21.87;29.47;99552.13;16105742;19;130918;-66
2023/12/31 17:37:05;;;;;;;8.05;2.38;;;;;;;21.78;29.67;99552.84;16101771;19;130762;-72
2023/12/31 17:42:27;;;;;;;13.50;2.10;;;;;;;21.69;29.88;99549.06;16097936;19;129453;-68
2023/12/31 17:47:49;;;;;;;14.52;2.00;;;;;;;21.62;29.97;99531.91;16097451;19;129492;-66
2023/12/31 17:53:12;;;;;;;10.52;1.80;;;;;;;21.54;30.14;99554.84;16104758;19;131265;-68
2023/12/31 17:58:34;;;;;;;7.43;2.38;;;;;;;21.44;30.47;99556.59;16101305;19;132211;-66
2023/12/31 18:03:56;;;;;;;13.50;3.90;;;;;;;21.44;30.58;99562.16;16100475;19;129798;-67
2023/12/31 18:09:18;;;;;;;24.00;11.50;;;;;;;21.51;30.59;99575.75;16096831;19;129737;-67
2023/12/31 18:14:40;;;;;;;41.05;23.60;;;;;;;21.63;30.64;99587.25;16090505;19;132231;-67
2023/12/31 18:20:02;;;;;;;66.55;40.13;;;;;;;21.69;30.82;99568.53;16103936;19;130428;-67
2023/12/31 18:25:24;;;;;;;70.60;48.75;;;;;;;21.66;31.06;99575.53;16106270;19;129367;-67
2023/12/31 18:30:46;;;;;;;165.57;132.40;;;;;;;21.64;31.05;99575.00;16103042;19;129646;-70
2023/12/31 18:36:10;;;;;;;139.73;115.13;;;;;;;21.58;31.36;99576.22;16107010;19;134287;-70
2023/12/31 18:41:32;;;;;;;130.65;100.75;;;;;;;21.50;31.29;99576.88;16120503;19;129275;-69
2023/12/31 18:46:54;;;;;;;109.43;86.57;;;;;;;21.43;31.69;99570.81;16123124;19;129983;-70
2023/12/31 18:52:16;;;;;;;94.22;74.53;;;;;;;21.34;31.45;99587.34;16116915;19;130671;-70
2023/12/31 18:57:39;;;;;;;81.38;63.20;;;;;;;21.28;31.33;99602.44;16119492;19;130222;-70
2023/12/31 19:03:01;;;;;;;73.15;56.05;;;;;;;21.20;31.70;99599.19;16116856;19;131055;-70
2023/12/31 19:08:23;;;;;;;61.92;47.30;;;;;;;21.12;31.53;99599.84;16115308;19;129338;-70
2023/12/31 19:13:45;;;;;;;56.20;42.28;;;;;;;21.07;31.65;99613.78;16113487;19;129904;-69
2023/12/31 19:19:07;;;;;;;55.83;39.35;;;;;;;21.00;31.83;99614.13;16119002;19;129575;-70
2023/12/31 19:24:29;;;;;;;44.15;31.83;;;;;;;20.95;31.42;99619.78;16114636;19;130382;-69
2023/12/31 19:29:51;;;;;;;38.20;28.30;;;;;;;20.94;31.48;99634.78;16117472;19;131015;-70
2023/12/31 19:35:13;;;;;;;38.97;29.90;;;;;;;20.97;31.80;99636.16;16114816;19;132444;-70
2023/12/31 19:40:36;;;;;;;33.35;25.98;;;;;;;21.03;31.70;99643.31;16114411;19;129994;-70
2023/12/31 19:45:59;;;;;;;28.38;21.52;;;;;;;21.08;32.10;99654.38;16111505;19;130303;-70
2023/12/31 19:51:21;;;;;;;25.00;18.00;;;;;;;21.16;32.07;99673.22;16112027;19;129880;-69
2023/12/31 19:56:43;;;;;;;22.85;15.98;;;;;;;21.22;31.85;99674.00;16112488;19;130638;-69
2023/12/31 20:02:05;;;;;;;19.35;12.98;;;;;;;21.27;31.93;99687.00;16110323;19;129540;-70
2023/12/31 20:07:29;;;;;;;14.63;10.18;;;;;;;21.30;31.49;99689.19;16109151;19;130367;-69
2023/12/31 20:12:51;;;;;;;17.83;10.15;;;;;;;21.34;31.67;99666.06;16105718;19;130548;-68
2023/12/31 20:18:13;;;;;;;16.20;10.25;;;;;;;21.46;31.76;99678.75;16111355;19;130730;-67
2023/12/31 20:23:35;;;;;;;18.50;9.43;;;;;;;21.55;31.81;99702.03;16105591;19;129575;-66
2023/12/31 20:28:58;;;;;;;17.38;8.68;;;;;;;21.64;32.00;99718.91;16106626;19;131046;-67
2023/12/31 20:34:20;;;;;;;23.58;7.82;;;;;;;21.69;31.80;99699.34;16106691;19;129587;-67
2023/12/31 20:39:43;;;;;;;21.58;6.90;;;;;;;21.70;31.72;99717.72;16111118;19;131091;-67
2023/12/31 20:45:05;;;;;;;14.75;6.38;;;;;;;21.66;31.87;99716.66;16109139;19;130225;-63
2023/12/31 20:50:27;;;;;;;11.35;5.45;;;;;;;21.63;31.68;99728.38;16111442;19;129700;-67
2023/12/31 20:55:52;;;;;;;9.68;4.25;;;;;;;21.55;31.81;99729.84;16110860;19;132289;-67
2023/12/31 21:01:14;;;;;;;16.73;5.10;;;;;;;21.46;31.88;99737.97;16104827;19;130424;-68
2023/12/31 21:06:39;;;;;;;10.77;4.25;;;;;;;21.39;32.11;99739.44;16109948;19;131013;-67
2023/12/31 21:12:02;;;;;;;14.52;4.13;;;;;;;21.32;32.59;99718.38;16109051;19;132415;-68
2023/12/31 21:17:24;;;;;;;10.98;3.88;;;;;;;21.34;32.79;99720.88;16110779;19;129609;-67
2023/12/31 21:22:46;;;;;;;9.23;3.33;;;;;;;21.36;32.74;99715.84;16106020;19;129616;-67
2023/12/31 21:28:08;;;;;;;9.35;3.10;;;;;;;21.32;32.37;99709.19;16107677;19;129643;-67
2023/12/31 21:33:31;;;;;;;9.50;2.70;;;;;;;21.28;32.31;99717.31;16105313;19;129800;-69
2023/12/31 21:38:53;;;;;;;12.48;3.05;;;;;;;21.21;32.13;99706.53;16107621;19;132858;-66
2023/12/31 21:44:18;;;;;;;8.30;2.92;;;;;;;21.15;32.08;99702.16;16106894;19;129959;-65
2023/12/31 21:49:40;;;;;;;10.50;2.25;;;;;;;21.11;32.30;99694.69;16103164;19;130092;-65
2023/12/31 21:55:02;;;;;;;6.70;2.13;;;;;;;21.03;32.02;99718.41;16105393;19;130627;-64
2023/12/31 22:00:36;;;;;;;5.93;2.15;;;;;;;20.95;32.06;99730.13;16106722;19;131806;-65
2023/12/31 22:05:58;;;;;;;8.30;1.97;;;;;;;20.87;32.21;99737.13;16104316;19;130150;-66
2023/12/31 22:11:20;;;;;;;5.75;2.00;;;;;;;20.81;32.43;99750.25;16103219;19;130093;-65
2023/12/31 22:16:42;;;;;;;10.35;2.08;;;;;;;20.74;31.90;99753.31;16111457;19;130342;-66
2023/12/31 22:22:04;;;;;;;7.10;1.75;;;;;;;20.67;32.24;99757.56;16113690;19;129993;-66
2023/12/31 22:27:27;;;;;;;4.72;1.70;;;;;;;20.59;31.97;99767.34;16113710;19;130348;-66
2023/12/31 22:32:50;;;;;;;3.53;1.27;;;;;;;20.51;32.32;99770.72;16122382;19;131090;-66
2023/12/31 22:38:12;;;;;;;4.68;1.52;;;;;;;20.45;32.13;99781.03;16120005;19;130105;-65
2023/12/31 22:43:35;;;;;;;6.47;2.08;;;;;;;20.37;32.27;99785.25;16120372;19;129251;-66
2023/12/31 22:48:57;;;;;;;4.25;1.30;;;;;;;20.32;32.04;99784.44;16117884;19;130054;-66
2023/12/31 22:54:19;;;;;;;7.20;1.75;;;;;;;20.27;32.37;99794.47;16118607;19;131629;-65
2023/12/31 22:59:44;;;;;;;6.47;1.73;;;;;;;20.22;32.27;99785.34;16115878;19;129933;-65
2023/12/31 23:05:07;;;;;;;4.00;1.38;;;;;;;20.17;31.90;99796.47;16119399;19;130468;-65
2023/12/31 23:10:29;;;;;;;4.93;1.50;;;;;;;20.12;32.37;99791.75;16117965;19;129811;-65
2023/12/31 23:15:51;;;;;;;3.92;1.23;;;;;;;20.08;32.07;99799.84;16113574;19;129952;-66
2023/12/31 23:21:13;;;;;;;5.68;1.67;;;;;;;20.05;31.83;99807.91;16111804;19;131176;-65
2023/12/31 23:26:36;;;;;;;8.38;1.75;;;;;;;20.03;31.95;99810.13;16108522;19;129711;-64
2023/12/31 23:31:58;;;;;;;6.32;1.42;;;;;;;20.04;31.72;99840.38;16122781;19;131060;-71
2023/12/31 23:37:21;;;;;;;4.75;1.35;;;;;;;20.07;32.02;99848.16;16120580;19;129867;-69
2023/12/31 23:42:42;;;;;;;5.63;1.48;;;;;;;20.17;32.21;99844.50;16122346;19;130183;-68
2023/12/31 23:48:05;;;;;;;4.30;1.20;;;;;;;20.28;32.19;99843.34;16119534;19;131778;-66
2023/12/31 23:53:27;;;;;;;6.50;2.03;;;;;;;20.39;32.05;99857.19;16121960;19;129360;-67
2023/12/31 23:58:49;;;;;;;6.18;1.60;;;;;;;20.50;31.86;99863.50;16119618;19;129684;-68
